sensor_id;sensor_type;location;lat;lon;timestamp;temperature;humidity
23395;DHT22;11870;53.084;18.206;2023-03-09T00:11:24;0.90;99.90
23395;DHT22;11870;53.084;18.206;2023-03-09T00:16:21;0.80;99.90
23395;DHT22;11870;53.084;18.206;2023-03-09T00:21:18;0.80;99.90
23395;DHT22;11870;53.084;18.206;2023-03-09T00:24:09;0.80;99.90
23395;DHT22;11870;53.084;18.206;2023-03-09T00:26:38;0.80;99.90
23395;DHT22;11870;53.084;18.206;2023-03-09T00:29:07;0.70;99.90
23395;DHT22;11870;53.084;18.206;2023-03-09T00:38:53;0.90;99.90
23395;DHT22;11870;53.084;18.206;2023-03-09T00:41:20;0.80;99.90
23395;DHT22;11870;53.084;18.206;2023-03-09T00:46:14;0.80;99.90
23395;DHT22;11870;53.084;18.206;2023-03-09T00:56:01;0.90;99.90
23395;DHT22;11870;53.084;18.206;2023-03-09T01:30:11;0.80;99.90
23395;DHT22;11870;53.084;18.206;2023-03-09T01:35:05;0.90;99.90
23395;DHT22;11870;53.084;18.206;2023-03-09T01:50:03;0.80;99.90
23395;DHT22;11870;53.084;18.206;2023-03-09T01:52:33;0.80;99.90
23395;DHT22;11870;53.084;18.206;2023-03-09T01:55:11;1.10;99.90
23395;DHT22;11870;53.084;18.206;2023-03-09T01:57:51;0.80;99.90
23395;DHT22;11870;53.084;18.206;2023-03-09T02:00:21;0.90;99.90
23395;DHT22;11870;53.084;18.206;2023-03-09T02:03:03;0.90;99.90
23395;DHT22;11870;53.084;18.206;2023-03-09T02:05:39;0.90;99.90
23395;DHT22;11870;53.084;18.206;2023-03-09T02:08:08;0.90;99.90
23395;DHT22;11870;53.084;18.206;2023-03-09T02:10:40;0.80;99.90
23395;DHT22;11870;53.084;18.206;2023-03-09T02:13:13;0.80;99.90
23395;DHT22;11870;53.084;18.206;2023-03-09T02:18:07;0.80;99.90
23395;DHT22;11870;53.084;18.206;2023-03-09T02:26:37;1.00;99.90
23395;DHT22;11870;53.084;18.206;2023-03-09T02:41:17;0.80;99.90
23395;DHT22;11870;53.084;18.206;2023-03-09T02:43:49;0.80;99.90
23395;DHT22;11870;53.084;18.206;2023-03-09T03:20:26;0.80;99.90
23395;DHT22;11870;53.084;18.206;2023-03-09T03:30:12;0.80;99.90
23395;DHT22;11870;53.084;18.206;2023-03-09T03:35:05;0.60;99.90
23395;DHT22;11870;53.084;18.206;2023-03-09T03:57:03;0.90;99.90
23395;DHT22;11870;53.084;18.206;2023-03-09T04:36:09;0.70;99.90
23395;DHT22;11870;53.084;18.206;2023-03-09T04:43:29;0.90;99.90
23395;DHT22;11870;53.084;18.206;2023-03-09T05:12:45;0.80;99.90
23395;DHT22;11870;53.084;18.206;2023-03-09T05:20:04;0.80;99.90
23395;DHT22;11870;53.084;18.206;2023-03-09T05:51:54;0.80;99.90
23395;DHT22;11870;53.084;18.206;2023-03-09T06:13:54;1.10;99.90
23395;DHT22;11870;53.084;18.206;2023-03-09T06:26:09;1.30;99.90
23395;DHT22;11870;53.084;18.206;2023-03-09T06:31:09;1.40;99.90
23395;DHT22;11870;53.084;18.206;2023-03-09T06:33:39;1.40;99.90
23395;DHT22;11870;53.084;18.206;2023-03-09T06:36:06;1.30;99.90
23395;DHT22;11870;53.084;18.206;2023-03-09T07:03:04;1.80;99.90
23395;DHT22;11870;53.084;18.206;2023-03-09T07:20:10;1.60;99.90
23395;DHT22;11870;53.084;18.206;2023-03-09T08:09:06;2.40;99.90
23395;DHT22;11870;53.084;18.206;2023-03-09T08:11:33;2.40;99.90
23395;DHT22;11870;53.084;18.206;2023-03-09T08:13:59;2.40;99.90
23395;DHT22;11870;53.084;18.206;2023-03-09T08:16:25;2.40;99.90
23395;DHT22;11870;53.084;18.206;2023-03-09T08:26:12;2.70;99.90
23395;DHT22;11870;53.084;18.206;2023-03-09T08:28:39;2.80;99.90
23395;DHT22;11870;53.084;18.206;2023-03-09T08:38:25;3.00;99.90
23395;DHT22;11870;53.084;18.206;2023-03-09T08:50:37;3.30;99.90
23395;DHT22;11870;53.084;18.206;2023-03-09T09:15:07;4.30;93.60
23395;DHT22;11870;53.084;18.206;2023-03-09T09:20:07;4.60;93.10
23395;DHT22;11870;53.084;18.206;2023-03-09T09:32:19;4.50;82.40
23395;DHT22;11870;53.084;18.206;2023-03-09T09:42:20;4.90;79.80
23395;DHT22;11870;53.084;18.206;2023-03-09T09:44:49;5.10;79.40
23395;DHT22;11870;53.084;18.206;2023-03-09T09:47:20;5.30;77.10
23395;DHT22;11870;53.084;18.206;2023-03-09T09:49:48;5.30;75.10
23395;DHT22;11870;53.084;18.206;2023-03-09T09:52:35;5.40;78.00
23395;DHT22;11870;53.084;18.206;2023-03-09T09:55:27;5.50;76.70
23395;DHT22;11870;53.084;18.206;2023-03-09T10:00:48;5.70;74.40
23395;DHT22;11870;53.084;18.206;2023-03-09T10:05:56;5.70;75.40
23395;DHT22;11870;53.084;18.206;2023-03-09T10:08:52;5.60;72.00
23395;DHT22;11870;53.084;18.206;2023-03-09T10:11:56;5.60;73.00
23395;DHT22;11870;53.084;18.206;2023-03-09T10:14:23;5.50;72.20
23395;DHT22;11870;53.084;18.206;2023-03-09T10:19:33;5.50;72.50
23395;DHT22;11870;53.084;18.206;2023-03-09T10:22:05;5.70;73.20
23395;DHT22;11870;53.084;18.206;2023-03-09T10:35:37;5.20;68.90
23395;DHT22;11870;53.084;18.206;2023-03-09T10:38:11;5.30;64.60
23395;DHT22;11870;53.084;18.206;2023-03-09T10:40:45;5.30;63.60
23395;DHT22;11870;53.084;18.206;2023-03-09T10:43:26;5.20;67.50
23395;DHT22;11870;53.084;18.206;2023-03-09T10:45:54;5.20;66.10
23395;DHT22;11870;53.084;18.206;2023-03-09T10:51:00;5.40;71.50
23395;DHT22;11870;53.084;18.206;2023-03-09T10:53:42;5.10;71.30
23395;DHT22;11870;53.084;18.206;2023-03-09T11:03:39;5.20;67.40
23395;DHT22;11870;53.084;18.206;2023-03-09T11:08:55;5.20;66.90
23395;DHT22;11870;53.084;18.206;2023-03-09T11:11:24;5.30;65.40
23395;DHT22;11870;53.084;18.206;2023-03-09T11:13:51;5.20;63.80
23395;DHT22;11870;53.084;18.206;2023-03-09T11:16:27;5.60;66.60
23395;DHT22;11870;53.084;18.206;2023-03-09T11:19:08;5.60;64.50
23395;DHT22;11870;53.084;18.206;2023-03-09T11:24:02;5.20;60.70
23395;DHT22;11870;53.084;18.206;2023-03-09T11:26:34;5.10;61.90
23395;DHT22;11870;53.084;18.206;2023-03-09T11:29:44;5.20;64.50
23395;DHT22;11870;53.084;18.206;2023-03-09T11:34:41;5.10;60.40
23395;DHT22;11870;53.084;18.206;2023-03-09T11:37:16;5.20;58.20
23395;DHT22;11870;53.084;18.206;2023-03-09T11:40:03;5.20;59.00
23395;DHT22;11870;53.084;18.206;2023-03-09T11:44:59;5.20;59.30
23395;DHT22;11870;53.084;18.206;2023-03-09T11:49:54;5.20;58.10
23395;DHT22;11870;53.084;18.206;2023-03-09T11:52:34;5.10;58.40
23395;DHT22;11870;53.084;18.206;2023-03-09T11:55:05;5.10;57.80
23395;DHT22;11870;53.084;18.206;2023-03-09T11:57:34;5.10;58.70
23395;DHT22;11870;53.084;18.206;2023-03-09T12:00:12;4.90;61.90
23395;DHT22;11870;53.084;18.206;2023-03-09T12:02:55;4.90;59.10
23395;DHT22;11870;53.084;18.206;2023-03-09T12:05:24;4.70;57.60
23395;DHT22;11870;53.084;18.206;2023-03-09T12:08:14;4.80;60.90
23395;DHT22;11870;53.084;18.206;2023-03-09T12:11:06;4.80;58.00
23395;DHT22;11870;53.084;18.206;2023-03-09T12:13:54;4.80;59.20
23395;DHT22;11870;53.084;18.206;2023-03-09T12:16:34;4.70;63.40
23395;DHT22;11870;53.084;18.206;2023-03-09T12:21:42;4.60;62.70
23395;DHT22;11870;53.084;18.206;2023-03-09T12:29:40;4.90;58.70
23395;DHT22;11870;53.084;18.206;2023-03-09T12:32:34;5.00;57.00
23395;DHT22;11870;53.084;18.206;2023-03-09T12:35:04;4.90;57.30
23395;DHT22;11870;53.084;18.206;2023-03-09T12:42:42;5.20;57.10
23395;DHT22;11870;53.084;18.206;2023-03-09T12:55:47;5.00;57.20
23395;DHT22;11870;53.084;18.206;2023-03-09T13:06:35;4.90;61.90
23395;DHT22;11870;53.084;18.206;2023-03-09T13:09:23;4.80;59.10
23395;DHT22;11870;53.084;18.206;2023-03-09T13:17:33;4.70;60.20
23395;DHT22;11870;53.084;18.206;2023-03-09T13:19:51;4.70;61.20
23395;DHT22;11870;53.084;18.206;2023-03-09T13:22:19;4.80;60.00
23395;DHT22;11870;53.084;18.206;2023-03-09T13:24:46;4.70;58.60
23395;DHT22;11870;53.084;18.206;2023-03-09T13:27:26;4.30;63.00
23395;DHT22;11870;53.084;18.206;2023-03-09T13:29:57;4.60;58.00
23395;DHT22;11870;53.084;18.206;2023-03-09T13:32:33;4.60;58.60
23395;DHT22;11870;53.084;18.206;2023-03-09T13:35:20;4.60;58.20
23395;DHT22;11870;53.084;18.206;2023-03-09T13:37:56;4.50;58.00
23395;DHT22;11870;53.084;18.206;2023-03-09T13:40:29;4.40;61.20
23395;DHT22;11870;53.084;18.206;2023-03-09T13:42:57;4.40;58.40
23395;DHT22;11870;53.084;18.206;2023-03-09T13:45:29;4.40;58.60
23395;DHT22;11870;53.084;18.206;2023-03-09T13:48:04;4.40;58.30
23395;DHT22;11870;53.084;18.206;2023-03-09T13:50:33;4.40;58.70
23395;DHT22;11870;53.084;18.206;2023-03-09T13:53:26;4.40;57.10
23395;DHT22;11870;53.084;18.206;2023-03-09T13:56:04;4.10;58.00
23395;DHT22;11870;53.084;18.206;2023-03-09T13:58:41;4.20;56.40
23395;DHT22;11870;53.084;18.206;2023-03-09T14:01:27;4.20;55.60
23395;DHT22;11870;53.084;18.206;2023-03-09T14:03:56;4.20;55.40
23395;DHT22;11870;53.084;18.206;2023-03-09T14:06:34;4.20;55.60
23395;DHT22;11870;53.084;18.206;2023-03-09T14:16:35;4.10;55.10
23395;DHT22;11870;53.084;18.206;2023-03-09T14:19:03;4.20;55.80
23395;DHT22;11870;53.084;18.206;2023-03-09T14:21:35;4.20;56.90
23395;DHT22;11870;53.084;18.206;2023-03-09T14:34:25;3.90;55.40
23395;DHT22;11870;53.084;18.206;2023-03-09T14:36:55;3.90;56.00
23395;DHT22;11870;53.084;18.206;2023-03-09T14:39:35;3.80;56.40
23395;DHT22;11870;53.084;18.206;2023-03-09T14:44:37;3.80;55.90
23395;DHT22;11870;53.084;18.206;2023-03-09T14:47:24;3.90;55.60
23395;DHT22;11870;53.084;18.206;2023-03-09T14:49:52;3.90;55.70
23395;DHT22;11870;53.084;18.206;2023-03-09T14:52:19;3.90;54.90
23395;DHT22;11870;53.084;18.206;2023-03-09T14:54:47;4.00;55.70
23395;DHT22;11870;53.084;18.206;2023-03-09T14:57:14;4.00;54.40
23395;DHT22;11870;53.084;18.206;2023-03-09T15:02:11;3.70;53.90
23395;DHT22;11870;53.084;18.206;2023-03-09T15:04:39;3.70;55.00
23395;DHT22;11870;53.084;18.206;2023-03-09T15:12:03;3.60;55.70
23395;DHT22;11870;53.084;18.206;2023-03-09T15:14:47;3.60;56.20
23395;DHT22;11870;53.084;18.206;2023-03-09T15:17:16;3.40;57.20
23395;DHT22;11870;53.084;18.206;2023-03-09T15:19:42;3.40;57.40
23395;DHT22;11870;53.084;18.206;2023-03-09T15:22:11;3.40;57.40
23395;DHT22;11870;53.084;18.206;2023-03-09T15:24:38;3.40;58.00
23395;DHT22;11870;53.084;18.206;2023-03-09T15:27:06;3.40;57.10
23395;DHT22;11870;53.084;18.206;2023-03-09T15:29:32;3.40;56.40
23395;DHT22;11870;53.084;18.206;2023-03-09T15:31:58;3.40;54.80
23395;DHT22;11870;53.084;18.206;2023-03-09T15:34:25;3.40;55.70
23395;DHT22;11870;53.084;18.206;2023-03-09T15:36:51;3.30;56.30
23395;DHT22;11870;53.084;18.206;2023-03-09T15:39:17;3.30;56.50
23395;DHT22;11870;53.084;18.206;2023-03-09T15:41:43;3.30;56.90
23395;DHT22;11870;53.084;18.206;2023-03-09T15:44:09;3.20;56.80
23395;DHT22;11870;53.084;18.206;2023-03-09T15:46:35;3.10;57.60
23395;DHT22;11870;53.084;18.206;2023-03-09T15:49:05;3.00;57.50
23395;DHT22;11870;53.084;18.206;2023-03-09T15:51:32;3.00;57.90
23395;DHT22;11870;53.084;18.206;2023-03-09T15:54:04;3.00;58.20
23395;DHT22;11870;53.084;18.206;2023-03-09T15:56:31;2.90;58.50
23395;DHT22;11870;53.084;18.206;2023-03-09T15:58:57;2.90;59.40
23395;DHT22;11870;53.084;18.206;2023-03-09T16:01:23;2.90;60.00
23395;DHT22;11870;53.084;18.206;2023-03-09T16:03:51;3.00;60.40
23395;DHT22;11870;53.084;18.206;2023-03-09T16:06:18;2.90;61.40
23395;DHT22;11870;53.084;18.206;2023-03-09T16:08:45;2.80;62.10
23395;DHT22;11870;53.084;18.206;2023-03-09T16:11:11;2.80;62.70
23395;DHT22;11870;53.084;18.206;2023-03-09T16:13:37;2.70;63.40
23395;DHT22;11870;53.084;18.206;2023-03-09T16:16:05;2.60;63.70
23395;DHT22;11870;53.084;18.206;2023-03-09T16:18:31;2.60;64.60
23395;DHT22;11870;53.084;18.206;2023-03-09T16:21:01;2.40;64.70
23395;DHT22;11870;53.084;18.206;2023-03-09T16:23:27;2.50;66.60
23395;DHT22;11870;53.084;18.206;2023-03-09T16:25:54;2.40;66.10
23395;DHT22;11870;53.084;18.206;2023-03-09T16:28:21;2.40;67.00
23395;DHT22;11870;53.084;18.206;2023-03-09T16:30:47;2.40;68.20
23395;DHT22;11870;53.084;18.206;2023-03-09T16:33:13;2.40;69.10
23395;DHT22;11870;53.084;18.206;2023-03-09T16:35:40;2.30;69.90
23395;DHT22;11870;53.084;18.206;2023-03-09T16:38:08;2.20;71.60
23395;DHT22;11870;53.084;18.206;2023-03-09T16:40:33;2.20;71.90
23395;DHT22;11870;53.084;18.206;2023-03-09T16:43:00;2.20;71.90
23395;DHT22;11870;53.084;18.206;2023-03-09T16:45:26;2.30;71.90
23395;DHT22;11870;53.084;18.206;2023-03-09T16:47:52;2.30;72.50
23395;DHT22;11870;53.084;18.206;2023-03-09T16:50:21;2.30;72.90
23395;DHT22;11870;53.084;18.206;2023-03-09T16:52:48;2.30;74.00
23395;DHT22;11870;53.084;18.206;2023-03-09T16:55:19;2.20;74.80
23395;DHT22;11870;53.084;18.206;2023-03-09T16:57:47;2.20;75.40
23395;DHT22;11870;53.084;18.206;2023-03-09T17:00:16;2.10;76.00
23395;DHT22;11870;53.084;18.206;2023-03-09T17:02:43;2.10;77.80
23395;DHT22;11870;53.084;18.206;2023-03-09T17:05:12;2.00;79.40
23395;DHT22;11870;53.084;18.206;2023-03-09T17:07:39;2.00;81.40
23395;DHT22;11870;53.084;18.206;2023-03-09T17:10:07;1.90;83.30
23395;DHT22;11870;53.084;18.206;2023-03-09T17:12:34;2.00;85.40
23395;DHT22;11870;53.084;18.206;2023-03-09T17:15:00;1.90;85.40
23395;DHT22;11870;53.084;18.206;2023-03-09T17:17:26;1.90;87.40
23395;DHT22;11870;53.084;18.206;2023-03-09T17:19:55;1.80;88.80
23395;DHT22;11870;53.084;18.206;2023-03-09T17:22:22;1.80;90.80
23395;DHT22;11870;53.084;18.206;2023-03-09T17:24:48;1.80;91.10
23395;DHT22;11870;53.084;18.206;2023-03-09T17:27:14;1.80;91.50
23395;DHT22;11870;53.084;18.206;2023-03-09T17:29:42;1.70;92.80
23395;DHT22;11870;53.084;18.206;2023-03-09T17:32:08;1.70;93.10
23395;DHT22;11870;53.084;18.206;2023-03-09T17:34:37;1.70;94.90
23395;DHT22;11870;53.084;18.206;2023-03-09T17:37:03;1.70;95.80
23395;DHT22;11870;53.084;18.206;2023-03-09T17:39:29;1.70;96.90
23395;DHT22;11870;53.084;18.206;2023-03-09T17:41:55;1.70;98.60
23395;DHT22;11870;53.084;18.206;2023-03-09T17:44:21;1.70;99.00
23395;DHT22;11870;53.084;18.206;2023-03-09T17:46:47;1.70;99.50
23395;DHT22;11870;53.084;18.206;2023-03-09T17:49:13;1.80;98.50
23395;DHT22;11870;53.084;18.206;2023-03-09T17:51:39;1.70;98.80
23395;DHT22;11870;53.084;18.206;2023-03-09T17:54:06;1.70;99.70
23395;DHT22;11870;53.084;18.206;2023-03-09T17:56:32;1.70;99.90
23395;DHT22;11870;53.084;18.206;2023-03-09T17:58:58;1.80;99.90
23395;DHT22;11870;53.084;18.206;2023-03-09T18:01:26;1.90;99.90
23395;DHT22;11870;53.084;18.206;2023-03-09T18:03:54;1.80;99.90
23395;DHT22;11870;53.084;18.206;2023-03-09T18:06:23;1.70;99.90
23395;DHT22;11870;53.084;18.206;2023-03-09T18:08:51;1.70;99.90
23395;DHT22;11870;53.084;18.206;2023-03-09T18:11:20;1.60;99.90
23395;DHT22;11870;53.084;18.206;2023-03-09T18:13:52;1.60;99.90
23395;DHT22;11870;53.084;18.206;2023-03-09T18:16:19;1.80;99.90
23395;DHT22;11870;53.084;18.206;2023-03-09T18:18:44;1.70;99.90
23395;DHT22;11870;53.084;18.206;2023-03-09T18:21:14;1.70;99.90
23395;DHT22;11870;53.084;18.206;2023-03-09T18:23:40;1.70;99.90
23395;DHT22;11870;53.084;18.206;2023-03-09T18:26:15;1.70;99.90
23395;DHT22;11870;53.084;18.206;2023-03-09T18:28:41;1.80;99.90
23395;DHT22;11870;53.084;18.206;2023-03-09T18:31:07;1.80;99.90
23395;DHT22;11870;53.084;18.206;2023-03-09T18:33:33;1.80;99.90
23395;DHT22;11870;53.084;18.206;2023-03-09T18:36:04;1.80;99.90
23395;DHT22;11870;53.084;18.206;2023-03-09T18:38:31;1.80;99.90
23395;DHT22;11870;53.084;18.206;2023-03-09T18:40:57;1.90;99.90
23395;DHT22;11870;53.084;18.206;2023-03-09T18:43:23;1.90;99.90
23395;DHT22;11870;53.084;18.206;2023-03-09T18:45:49;2.00;99.90
23395;DHT22;11870;53.084;18.206;2023-03-09T18:48:15;2.00;99.90
23395;DHT22;11870;53.084;18.206;2023-03-09T18:50:42;2.00;99.90
23395;DHT22;11870;53.084;18.206;2023-03-09T18:53:09;1.90;99.90
23395;DHT22;11870;53.084;18.206;2023-03-09T18:55:39;1.80;99.90
23395;DHT22;11870;53.084;18.206;2023-03-09T18:58:05;1.70;99.90
23395;DHT22;11870;53.084;18.206;2023-03-09T19:00:32;1.70;99.90
23395;DHT22;11870;53.084;18.206;2023-03-09T19:02:59;1.60;99.90
23395;DHT22;11870;53.084;18.206;2023-03-09T19:05:25;1.70;99.90
23395;DHT22;11870;53.084;18.206;2023-03-09T19:07:51;1.70;99.90
23395;DHT22;11870;53.084;18.206;2023-03-09T19:10:17;1.70;99.90
23395;DHT22;11870;53.084;18.206;2023-03-09T19:12:43;1.70;99.90
23395;DHT22;11870;53.084;18.206;2023-03-09T19:15:09;1.70;99.90
23395;DHT22;11870;53.084;18.206;2023-03-09T19:17:35;1.60;99.90
23395;DHT22;11870;53.084;18.206;2023-03-09T19:20:02;1.60;99.90
23395;DHT22;11870;53.084;18.206;2023-03-09T19:22:29;1.60;99.90
23395;DHT22;11870;53.084;18.206;2023-03-09T19:24:56;1.60;99.90
23395;DHT22;11870;53.084;18.206;2023-03-09T19:27:23;1.60;99.90
23395;DHT22;11870;53.084;18.206;2023-03-09T19:29:49;1.70;99.90
23395;DHT22;11870;53.084;18.206;2023-03-09T19:32:15;1.70;99.90
23395;DHT22;11870;53.084;18.206;2023-03-09T19:34:41;1.70;99.90
23395;DHT22;11870;53.084;18.206;2023-03-09T19:37:06;1.70;99.90
23395;DHT22;11870;53.084;18.206;2023-03-09T19:39:33;1.70;99.90
23395;DHT22;11870;53.084;18.206;2023-03-09T19:42:07;1.70;99.90
23395;DHT22;11870;53.084;18.206;2023-03-09T19:44:34;1.60;99.90
23395;DHT22;11870;53.084;18.206;2023-03-09T19:47:00;1.50;99.90
23395;DHT22;11870;53.084;18.206;2023-03-09T19:49:26;1.60;99.90
23395;DHT22;11870;53.084;18.206;2023-03-09T19:51:54;1.60;99.90
23395;DHT22;11870;53.084;18.206;2023-03-09T19:54:20;1.60;99.90
23395;DHT22;11870;53.084;18.206;2023-03-09T19:56:46;1.70;99.90
23395;DHT22;11870;53.084;18.206;2023-03-09T19:59:13;1.70;99.90
23395;DHT22;11870;53.084;18.206;2023-03-09T20:01:48;1.70;99.90
23395;DHT22;11870;53.084;18.206;2023-03-09T20:04:17;1.80;99.90
23395;DHT22;11870;53.084;18.206;2023-03-09T20:06:46;1.80;99.90
23395;DHT22;11870;53.084;18.206;2023-03-09T20:09:19;1.70;99.90
23395;DHT22;11870;53.084;18.206;2023-03-09T20:11:46;1.70;99.90
23395;DHT22;11870;53.084;18.206;2023-03-09T20:14:12;1.70;99.90
23395;DHT22;11870;53.084;18.206;2023-03-09T20:16:39;1.70;99.90
23395;DHT22;11870;53.084;18.206;2023-03-09T20:19:09;1.80;99.90
23395;DHT22;11870;53.084;18.206;2023-03-09T20:21:35;1.70;99.90
23395;DHT22;11870;53.084;18.206;2023-03-09T20:24:03;1.60;99.90
23395;DHT22;11870;53.084;18.206;2023-03-09T20:26:36;1.50;99.90
23395;DHT22;11870;53.084;18.206;2023-03-09T20:29:03;1.40;99.90
23395;DHT22;11870;53.084;18.206;2023-03-09T20:31:46;1.40;99.90
23395;DHT22;11870;53.084;18.206;2023-03-09T20:34:13;1.30;99.90
23395;DHT22;11870;53.084;18.206;2023-03-09T20:36:39;1.30;99.90
23395;DHT22;11870;53.084;18.206;2023-03-09T20:39:07;1.30;99.90
23395;DHT22;11870;53.084;18.206;2023-03-09T20:41:33;1.30;99.90
23395;DHT22;11870;53.084;18.206;2023-03-09T20:44:00;1.40;99.90
23395;DHT22;11870;53.084;18.206;2023-03-09T20:46:26;1.40;99.90
23395;DHT22;11870;53.084;18.206;2023-03-09T20:48:57;1.50;99.90
23395;DHT22;11870;53.084;18.206;2023-03-09T20:51:24;1.50;99.90
23395;DHT22;11870;53.084;18.206;2023-03-09T20:53:51;1.40;99.90
23395;DHT22;11870;53.084;18.206;2023-03-09T20:56:20;1.30;99.90
23395;DHT22;11870;53.084;18.206;2023-03-09T21:01:19;1.30;99.90
23395;DHT22;11870;53.084;18.206;2023-03-09T21:03:46;1.30;99.90
23395;DHT22;11870;53.084;18.206;2023-03-09T21:06:12;1.30;99.90
23395;DHT22;11870;53.084;18.206;2023-03-09T21:08:39;1.30;99.90
23395;DHT22;11870;53.084;18.206;2023-03-09T21:11:09;1.50;99.90
23395;DHT22;11870;53.084;18.206;2023-03-09T21:13:36;1.70;99.20
23395;DHT22;11870;53.084;18.206;2023-03-09T21:16:08;1.90;98.60
23395;DHT22;11870;53.084;18.206;2023-03-09T21:18:34;1.90;97.80
23395;DHT22;11870;53.084;18.206;2023-03-09T21:21:01;1.90;98.00
23395;DHT22;11870;53.084;18.206;2023-03-09T21:23:27;1.90;99.10
23395;DHT22;11870;53.084;18.206;2023-03-09T21:26:08;1.90;99.50
23395;DHT22;11870;53.084;18.206;2023-03-09T21:28:35;1.90;99.70
23395;DHT22;11870;53.084;18.206;2023-03-09T21:31:03;1.90;99.90
23395;DHT22;11870;53.084;18.206;2023-03-09T21:33:31;1.80;99.90
23395;DHT22;11870;53.084;18.206;2023-03-09T21:35:58;1.80;99.90
23395;DHT22;11870;53.084;18.206;2023-03-09T21:38:24;1.70;99.90
23395;DHT22;11870;53.084;18.206;2023-03-09T21:40:50;1.80;99.90
23395;DHT22;11870;53.084;18.206;2023-03-09T21:43:19;1.70;99.90
23395;DHT22;11870;53.084;18.206;2023-03-09T21:45:45;1.80;99.90
23395;DHT22;11870;53.084;18.206;2023-03-09T21:48:11;1.70;99.90
23395;DHT22;11870;53.084;18.206;2023-03-09T21:50:37;1.70;99.90
23395;DHT22;11870;53.084;18.206;2023-03-09T21:53:05;1.70;99.90
23395;DHT22;11870;53.084;18.206;2023-03-09T21:55:31;1.70;99.90
23395;DHT22;11870;53.084;18.206;2023-03-09T21:57:57;1.70;99.90
23395;DHT22;11870;53.084;18.206;2023-03-09T22:00:23;1.60;99.90
23395;DHT22;11870;53.084;18.206;2023-03-09T22:02:51;1.60;99.90
23395;DHT22;11870;53.084;18.206;2023-03-09T22:05:17;1.60;99.90
23395;DHT22;11870;53.084;18.206;2023-03-09T22:07:43;1.60;99.90
23395;DHT22;11870;53.084;18.206;2023-03-09T22:10:11;1.50;99.90
23395;DHT22;11870;53.084;18.206;2023-03-09T22:12:37;1.50;99.90
23395;DHT22;11870;53.084;18.206;2023-03-09T22:15:06;1.40;99.90
23395;DHT22;11870;53.084;18.206;2023-03-09T22:17:37;1.40;99.90
23395;DHT22;11870;53.084;18.206;2023-03-09T22:20:03;1.40;99.90
23395;DHT22;11870;53.084;18.206;2023-03-09T22:22:34;1.40;99.90
23395;DHT22;11870;53.084;18.206;2023-03-09T22:25:01;1.40;99.90
23395;DHT22;11870;53.084;18.206;2023-03-09T22:27:31;1.50;99.90
23395;DHT22;11870;53.084;18.206;2023-03-09T22:29:57;1.40;99.90
23395;DHT22;11870;53.084;18.206;2023-03-09T22:32:26;1.40;99.90
23395;DHT22;11870;53.084;18.206;2023-03-09T22:34:53;1.40;99.90
23395;DHT22;11870;53.084;18.206;2023-03-09T22:37:19;1.40;99.90
23395;DHT22;11870;53.084;18.206;2023-03-09T22:39:47;1.50;99.90
23395;DHT22;11870;53.084;18.206;2023-03-09T22:42:13;1.50;99.90
23395;DHT22;11870;53.084;18.206;2023-03-09T22:44:38;1.40;99.90
23395;DHT22;11870;53.084;18.206;2023-03-09T22:47:05;1.30;99.90
23395;DHT22;11870;53.084;18.206;2023-03-09T22:49:30;1.40;99.90
23395;DHT22;11870;53.084;18.206;2023-03-09T22:51:56;1.40;99.90
23395;DHT22;11870;53.084;18.206;2023-03-09T22:54:22;1.40;99.90
23395;DHT22;11870;53.084;18.206;2023-03-09T22:56:48;1.40;99.90
23395;DHT22;11870;53.084;18.206;2023-03-09T22:59:15;1.30;99.90
23395;DHT22;11870;53.084;18.206;2023-03-09T23:01:41;1.40;99.90
23395;DHT22;11870;53.084;18.206;2023-03-09T23:04:08;1.40;99.90
23395;DHT22;11870;53.084;18.206;2023-03-09T23:06:36;1.40;99.90
23395;DHT22;11870;53.084;18.206;2023-03-09T23:09:03;1.30;99.90
23395;DHT22;11870;53.084;18.206;2023-03-09T23:11:32;1.30;99.90
23395;DHT22;11870;53.084;18.206;2023-03-09T23:13:58;1.30;99.90
23395;DHT22;11870;53.084;18.206;2023-03-09T23:16:24;1.20;99.90
23395;DHT22;11870;53.084;18.206;2023-03-09T23:18:50;1.20;99.90
23395;DHT22;11870;53.084;18.206;2023-03-09T23:21:17;1.20;99.90
23395;DHT22;11870;53.084;18.206;2023-03-09T23:23:44;1.10;99.90
23395;DHT22;11870;53.084;18.206;2023-03-09T23:26:10;1.10;99.90
23395;DHT22;11870;53.084;18.206;2023-03-09T23:28:36;1.10;99.90
23395;DHT22;11870;53.084;18.206;2023-03-09T23:31:06;1.10;99.90
23395;DHT22;11870;53.084;18.206;2023-03-09T23:33:33;1.10;99.90
23395;DHT22;11870;53.084;18.206;2023-03-09T23:35:59;1.10;99.90
23395;DHT22;11870;53.084;18.206;2023-03-09T23:38:25;1.00;99.90
23395;DHT22;11870;53.084;18.206;2023-03-09T23:40:51;0.90;99.90
23395;DHT22;11870;53.084;18.206;2023-03-09T23:43:17;1.00;99.90
23395;DHT22;11870;53.084;18.206;2023-03-09T23:45:43;1.00;99.90
23395;DHT22;11870;53.084;18.206;2023-03-09T23:48:12;0.90;99.90
23395;DHT22;11870;53.084;18.206;2023-03-09T23:50:40;0.90;99.90
23395;DHT22;11870;53.084;18.206;2023-03-09T23:53:07;0.90;99.90
23395;DHT22;11870;53.084;18.206;2023-03-09T23:55:39;0.90;99.90
23395;DHT22;11870;53.084;18.206;2023-03-09T23:58:05;0.90;99.90
